sensor_id;sensor_type;location;lat;lon;timestamp;pressure;altitude;pressure_sealevel;temperature;humidity
45523;BME280;31254;51.680;5.394;2023-08-08T00:00:43;101524.69;;;15.17;70.11
45523;BME280;31254;51.680;5.394;2023-08-08T00:03:10;101485.94;;;14.94;70.23
45523;BME280;31254;51.680;5.394;2023-08-08T00:05:37;101434.25;;;14.63;70.05
45523;BME280;31254;51.680;5.394;2023-08-08T00:08:04;101476.06;;;14.84;70.41
45523;BME280;31254;51.680;5.394;2023-08-08T00:10:31;101516.94;;;15.13;70.50
45523;BME280;31254;51.680;5.394;2023-08-08T00:13:03;101265.66;;;13.61;70.42
45523;BME280;31254;51.680;5.394;2023-08-08T00:15:30;101319.41;;;13.98;70.32
45523;BME280;31254;51.680;5.394;2023-08-08T00:18:00;101507.66;;;15.14;70.88
45523;BME280;31254;51.680;5.394;2023-08-08T00:20:27;101409.31;;;14.57;70.83
45523;BME280;31254;51.680;5.394;2023-08-08T00:22:54;101473.88;;;14.87;71.05
45523;BME280;31254;51.680;5.394;2023-08-08T00:25:22;101443.75;;;14.69;71.22
45523;BME280;31254;51.680;5.394;2023-08-08T00:27:50;101450.34;;;14.85;71.16
45523;BME280;31254;51.680;5.394;2023-08-08T00:30:17;101503.38;;;15.11;71.45
45523;BME280;31254;51.680;5.394;2023-08-08T00:32:44;101512.47;;;15.12;71.39
45523;BME280;31254;51.680;5.394;2023-08-08T00:35:11;101504.22;;;15.12;71.20
45523;BME280;31254;51.680;5.394;2023-08-08T00:37:38;101510.72;;;15.11;71.25
45523;BME280;31254;51.680;5.394;2023-08-08T00:40:06;101512.63;;;15.10;71.35
45523;BME280;31254;51.680;5.394;2023-08-08T00:42:33;101334.56;;;14.11;71.39
45523;BME280;31254;51.680;5.394;2023-08-08T00:45:00;101501.63;;;15.10;71.47
45523;BME280;31254;51.680;5.394;2023-08-08T00:47:34;101433.56;;;14.61;71.37
45523;BME280;31254;51.680;5.394;2023-08-08T00:50:02;101497.16;;;15.09;71.64
45523;BME280;31254;51.680;5.394;2023-08-08T00:52:33;101432.19;;;14.66;71.75
45523;BME280;31254;51.680;5.394;2023-08-08T00:55:00;101459.09;;;14.88;71.76
45523;BME280;31254;51.680;5.394;2023-08-08T00:57:28;101467.34;;;14.88;71.90
45523;BME280;31254;51.680;5.394;2023-08-08T00:59:55;101268.31;;;13.71;71.97
45523;BME280;31254;51.680;5.394;2023-08-08T01:02:22;101382.75;;;14.39;72.05
45523;BME280;31254;51.680;5.394;2023-08-08T01:04:52;101475.41;;;14.90;72.15
45523;BME280;31254;51.680;5.394;2023-08-08T01:07:30;101477.34;;;14.97;72.24
45523;BME280;31254;51.680;5.394;2023-08-08T01:12:46;101404.75;;;14.66;72.31
45523;BME280;31254;51.680;5.394;2023-08-08T01:15:15;101391.94;;;14.48;72.67
45523;BME280;31254;51.680;5.394;2023-08-08T01:17:45;101493.22;;;15.12;72.73
45523;BME280;31254;51.680;5.394;2023-08-08T01:20:13;101471.22;;;15.04;72.41
45523;BME280;31254;51.680;5.394;2023-08-08T01:23:03;101490.47;;;15.12;72.85
45523;BME280;31254;51.680;5.394;2023-08-08T01:25:39;101405.94;;;14.63;72.75
45523;BME280;31254;51.680;5.394;2023-08-08T01:28:07;101385.75;;;14.54;73.13
45523;BME280;31254;51.680;5.394;2023-08-08T01:30:37;101402.78;;;14.58;73.24
45523;BME280;31254;51.680;5.394;2023-08-08T01:33:05;101492.06;;;15.14;73.45
45523;BME280;31254;51.680;5.394;2023-08-08T01:35:38;101327.63;;;14.24;73.05
45523;BME280;31254;51.680;5.394;2023-08-08T01:41:08;101476.75;;;15.12;72.78
45523;BME280;31254;51.680;5.394;2023-08-08T01:43:38;101436.59;;;14.85;73.38
45523;BME280;31254;51.680;5.394;2023-08-08T01:46:06;101465.69;;;14.95;73.48
45523;BME280;31254;51.680;5.394;2023-08-08T01:48:34;101428.31;;;14.76;73.37
45523;BME280;31254;51.680;5.394;2023-08-08T01:51:01;101392.13;;;14.55;73.18
45523;BME280;31254;51.680;5.394;2023-08-08T01:53:28;101480.19;;;15.14;73.24
45523;BME280;31254;51.680;5.394;2023-08-08T01:55:55;101449.19;;;14.95;73.14
45523;BME280;31254;51.680;5.394;2023-08-08T01:58:22;101441.25;;;14.84;73.08
45523;BME280;31254;51.680;5.394;2023-08-08T02:00:48;101380.28;;;14.54;72.65
45523;BME280;31254;51.680;5.394;2023-08-08T02:03:15;101414.44;;;14.78;72.71
45523;BME280;31254;51.680;5.394;2023-08-08T02:05:42;101456.44;;;15.05;73.06
45523;BME280;31254;51.680;5.394;2023-08-08T02:08:09;101477.91;;;15.09;72.63
45523;BME280;31254;51.680;5.394;2023-08-08T02:10:36;101462.97;;;15.04;72.70
45523;BME280;31254;51.680;5.394;2023-08-08T02:13:05;101471.09;;;15.13;72.76
45523;BME280;31254;51.680;5.394;2023-08-08T02:15:32;101469.34;;;15.12;72.94
45523;BME280;31254;51.680;5.394;2023-08-08T02:18:01;101442.66;;;14.96;72.85
45523;BME280;31254;51.680;5.394;2023-08-08T02:20:30;101454.88;;;15.02;72.46
45523;BME280;31254;51.680;5.394;2023-08-08T02:22:59;101460.41;;;15.10;72.60
45523;BME280;31254;51.680;5.394;2023-08-08T02:25:26;101461.28;;;15.11;72.62
45523;BME280;31254;51.680;5.394;2023-08-08T02:27:52;101435.28;;;14.97;72.78
45523;BME280;31254;51.680;5.394;2023-08-08T02:30:22;101454.94;;;15.10;72.76
45523;BME280;31254;51.680;5.394;2023-08-08T02:32:48;101412.56;;;14.87;73.01
45523;BME280;31254;51.680;5.394;2023-08-08T02:35:15;101385.19;;;14.69;72.92
45523;BME280;31254;51.680;5.394;2023-08-08T02:37:42;101445.63;;;15.03;73.19
45523;BME280;31254;51.680;5.394;2023-08-08T02:40:09;101404.13;;;14.80;73.05
45523;BME280;31254;51.680;5.394;2023-08-08T02:42:36;101449.91;;;15.06;72.89
45523;BME280;31254;51.680;5.394;2023-08-08T02:45:03;101384.88;;;14.72;73.28
45523;BME280;31254;51.680;5.394;2023-08-08T02:47:30;101377.31;;;14.74;72.96
45523;BME280;31254;51.680;5.394;2023-08-08T02:49:57;101431.69;;;15.05;73.24
45523;BME280;31254;51.680;5.394;2023-08-08T02:52:27;101313.59;;;14.27;73.16
45523;BME280;31254;51.680;5.394;2023-08-08T02:54:55;101408.00;;;14.95;72.84
45523;BME280;31254;51.680;5.394;2023-08-08T02:57:22;101376.31;;;14.75;72.84
45523;BME280;31254;51.680;5.394;2023-08-08T02:59:49;101333.56;;;14.46;72.71
45523;BME280;31254;51.680;5.394;2023-08-08T03:02:16;101423.97;;;15.00;72.99
45523;BME280;31254;51.680;5.394;2023-08-08T03:04:45;101426.91;;;14.98;72.92
45523;BME280;31254;51.680;5.394;2023-08-08T03:07:15;101439.75;;;14.98;72.58
45523;BME280;31254;51.680;5.394;2023-08-08T03:09:41;101443.53;;;14.97;73.02
45523;BME280;31254;51.680;5.394;2023-08-08T03:12:11;101375.22;;;14.59;72.87
45523;BME280;31254;51.680;5.394;2023-08-08T03:14:38;101310.78;;;14.19;73.10
45523;BME280;31254;51.680;5.394;2023-08-08T03:17:05;101405.69;;;14.83;72.50
45523;BME280;31254;51.680;5.394;2023-08-08T03:19:31;101297.25;;;14.18;72.92
45523;BME280;31254;51.680;5.394;2023-08-08T03:21:58;101422.06;;;14.92;72.94
45523;BME280;31254;51.680;5.394;2023-08-08T03:24:26;101423.94;;;14.92;72.88
45523;BME280;31254;51.680;5.394;2023-08-08T03:26:52;101413.97;;;14.91;72.93
45523;BME280;31254;51.680;5.394;2023-08-08T03:29:19;101388.25;;;14.66;73.08
45523;BME280;31254;51.680;5.394;2023-08-08T03:31:46;101425.28;;;14.88;73.15
45523;BME280;31254;51.680;5.394;2023-08-08T03:34:15;101424.91;;;14.83;72.93
45523;BME280;31254;51.680;5.394;2023-08-08T03:36:42;101347.09;;;14.39;73.19
45523;BME280;31254;51.680;5.394;2023-08-08T03:39:12;101298.84;;;14.02;73.34
45523;BME280;31254;51.680;5.394;2023-08-08T03:41:38;101405.25;;;14.61;73.23
45523;BME280;31254;51.680;5.394;2023-08-08T03:44:05;101421.66;;;14.79;73.28
45523;BME280;31254;51.680;5.394;2023-08-08T03:46:32;101398.72;;;14.62;73.31
45523;BME280;31254;51.680;5.394;2023-08-08T03:49:00;101414.59;;;14.76;73.32
45523;BME280;31254;51.680;5.394;2023-08-08T03:51:27;101421.97;;;14.76;73.25
45523;BME280;31254;51.680;5.394;2023-08-08T03:53:54;101369.03;;;14.39;73.15
45523;BME280;31254;51.680;5.394;2023-08-08T03:56:21;101423.31;;;14.72;73.17
45523;BME280;31254;51.680;5.394;2023-08-08T03:58:48;101345.97;;;14.24;73.21
45523;BME280;31254;51.680;5.394;2023-08-08T04:01:14;101418.16;;;14.69;73.11
45523;BME280;31254;51.680;5.394;2023-08-08T04:03:41;101376.25;;;14.40;73.59
45523;BME280;31254;51.680;5.394;2023-08-08T04:06:11;101413.13;;;14.64;73.52
45523;BME280;31254;51.680;5.394;2023-08-08T04:08:37;101415.03;;;14.63;73.32
45523;BME280;31254;51.680;5.394;2023-08-08T04:11:04;101408.00;;;14.61;73.33
45523;BME280;31254;51.680;5.394;2023-08-08T04:13:34;101363.66;;;14.30;73.08
45523;BME280;31254;51.680;5.394;2023-08-08T04:16:01;101255.06;;;13.66;73.15
45523;BME280;31254;51.680;5.394;2023-08-08T04:18:28;101389.34;;;14.47;73.40
45523;BME280;31254;51.680;5.394;2023-08-08T04:20:58;101408.78;;;14.53;73.54
45523;BME280;31254;51.680;5.394;2023-08-08T04:23:25;101297.19;;;13.83;73.38
45523;BME280;31254;51.680;5.394;2023-08-08T04:25:53;101356.91;;;14.16;73.62
45523;BME280;31254;51.680;5.394;2023-08-08T04:28:19;101380.81;;;14.32;73.51
45523;BME280;31254;51.680;5.394;2023-08-08T04:30:46;101371.38;;;14.26;72.89
45523;BME280;31254;51.680;5.394;2023-08-08T04:33:13;101351.41;;;14.16;73.82
45523;BME280;31254;51.680;5.394;2023-08-08T04:35:39;101410.59;;;14.44;73.49
45523;BME280;31254;51.680;5.394;2023-08-08T04:38:09;101411.63;;;14.43;73.50
45523;BME280;31254;51.680;5.394;2023-08-08T04:40:38;101409.03;;;14.42;73.62
45523;BME280;31254;51.680;5.394;2023-08-08T04:43:05;101414.69;;;14.40;73.64
45523;BME280;31254;51.680;5.394;2023-08-08T04:45:34;101416.56;;;14.40;74.06
45523;BME280;31254;51.680;5.394;2023-08-08T04:48:01;101421.34;;;14.38;74.09
45523;BME280;31254;51.680;5.394;2023-08-08T04:50:28;101404.13;;;14.27;74.19
45523;BME280;31254;51.680;5.394;2023-08-08T04:52:57;101416.91;;;14.37;74.49
45523;BME280;31254;51.680;5.394;2023-08-08T04:55:24;101420.50;;;14.37;74.42
45523;BME280;31254;51.680;5.394;2023-08-08T04:57:51;101418.59;;;14.38;74.45
45523;BME280;31254;51.680;5.394;2023-08-08T05:00:20;101413.13;;;14.38;74.60
45523;BME280;31254;51.680;5.394;2023-08-08T05:02:49;101373.91;;;14.19;74.87
45523;BME280;31254;51.680;5.394;2023-08-08T05:05:16;101357.53;;;14.10;75.36
45523;BME280;31254;51.680;5.394;2023-08-08T05:07:45;101403.03;;;14.38;75.30
45523;BME280;31254;51.680;5.394;2023-08-08T05:10:16;101403.72;;;14.40;75.52
45523;BME280;31254;51.680;5.394;2023-08-08T05:12:44;101407.31;;;14.41;75.63
45523;BME280;31254;51.680;5.394;2023-08-08T05:15:10;101377.56;;;14.28;75.83
45523;BME280;31254;51.680;5.394;2023-08-08T05:17:37;101307.13;;;13.84;75.92
45523;BME280;31254;51.680;5.394;2023-08-08T05:20:07;101320.88;;;13.93;75.82
45523;BME280;31254;51.680;5.394;2023-08-08T05:22:36;101409.56;;;14.45;76.13
45523;BME280;31254;51.680;5.394;2023-08-08T05:25:06;101382.88;;;14.30;76.38
45523;BME280;31254;51.680;5.394;2023-08-08T05:27:32;101411.84;;;14.50;76.25
45523;BME280;31254;51.680;5.394;2023-08-08T05:29:59;101389.09;;;14.40;76.56
45523;BME280;31254;51.680;5.394;2023-08-08T05:32:26;101297.03;;;13.85;75.97
45523;BME280;31254;51.680;5.394;2023-08-08T05:34:53;101352.47;;;14.23;76.84
45523;BME280;31254;51.680;5.394;2023-08-08T05:37:22;101415.19;;;14.62;76.72
45523;BME280;31254;51.680;5.394;2023-08-08T05:39:51;101410.06;;;14.67;77.04
45523;BME280;31254;51.680;5.394;2023-08-08T05:42:18;101417.81;;;14.72;77.40
45523;BME280;31254;51.680;5.394;2023-08-08T05:44:45;101412.84;;;14.75;77.26
45523;BME280;31254;51.680;5.394;2023-08-08T05:47:12;101215.31;;;13.62;77.07
45523;BME280;31254;51.680;5.394;2023-08-08T05:49:39;101356.25;;;14.48;77.33
45523;BME280;31254;51.680;5.394;2023-08-08T05:52:09;101408.13;;;14.86;77.89
45523;BME280;31254;51.680;5.394;2023-08-08T05:54:37;101407.78;;;14.89;77.95
45523;BME280;31254;51.680;5.394;2023-08-08T05:57:04;101387.81;;;14.78;78.34
45523;BME280;31254;51.680;5.394;2023-08-08T05:59:31;101415.34;;;14.95;78.62
45523;BME280;31254;51.680;5.394;2023-08-08T06:01:58;101380.63;;;14.77;78.76
45523;BME280;31254;51.680;5.394;2023-08-08T06:04:26;101422.78;;;15.03;79.16
45523;BME280;31254;51.680;5.394;2023-08-08T06:06:52;101383.91;;;14.89;81.94
45523;BME280;31254;51.680;5.394;2023-08-08T06:09:22;101404.13;;;15.14;82.60
45523;BME280;31254;51.680;5.394;2023-08-08T06:11:51;101408.75;;;15.22;83.25
45523;BME280;31254;51.680;5.394;2023-08-08T06:14:20;101379.72;;;15.11;84.38
45523;BME280;31254;51.680;5.394;2023-08-08T06:16:49;101416.34;;;15.28;85.10
45523;BME280;31254;51.680;5.394;2023-08-08T06:19:16;101415.00;;;15.32;85.01
45523;BME280;31254;51.680;5.394;2023-08-08T06:21:43;101384.69;;;15.16;85.00
45523;BME280;31254;51.680;5.394;2023-08-08T06:24:09;101416.38;;;15.45;85.37
45523;BME280;31254;51.680;5.394;2023-08-08T06:26:36;101397.63;;;15.32;85.70
45523;BME280;31254;51.680;5.394;2023-08-08T06:29:03;101424.66;;;15.53;86.07
45523;BME280;31254;51.680;5.394;2023-08-08T06:31:30;101415.72;;;15.51;86.29
45523;BME280;31254;51.680;5.394;2023-08-08T06:34:01;101394.88;;;15.40;86.66
45523;BME280;31254;51.680;5.394;2023-08-08T06:36:30;101395.28;;;15.45;86.58
45523;BME280;31254;51.680;5.394;2023-08-08T06:38:57;101430.16;;;15.69;86.36
45523;BME280;31254;51.680;5.394;2023-08-08T06:41:24;101407.31;;;15.61;86.43
45523;BME280;31254;51.680;5.394;2023-08-08T06:43:51;101438.31;;;15.79;86.77
45523;BME280;31254;51.680;5.394;2023-08-08T06:46:17;101436.94;;;15.83;86.89
45523;BME280;31254;51.680;5.394;2023-08-08T06:48:47;101402.91;;;15.76;86.79
45523;BME280;31254;51.680;5.394;2023-08-08T06:51:14;101436.28;;;15.98;86.84
45523;BME280;31254;51.680;5.394;2023-08-08T06:53:41;101419.94;;;15.96;86.84
45523;BME280;31254;51.680;5.394;2023-08-08T06:56:11;101441.09;;;16.12;86.45
45523;BME280;31254;51.680;5.394;2023-08-08T06:58:37;101414.75;;;16.09;85.96
45523;BME280;31254;51.680;5.394;2023-08-08T07:01:04;101430.59;;;16.24;85.44
45523;BME280;31254;51.680;5.394;2023-08-08T07:03:31;101392.75;;;16.09;85.36
45523;BME280;31254;51.680;5.394;2023-08-08T07:06:00;101432.31;;;16.33;85.49
45523;BME280;31254;51.680;5.394;2023-08-08T07:08:27;101404.06;;;16.23;85.16
45523;BME280;31254;51.680;5.394;2023-08-08T07:10:54;101378.97;;;16.09;84.86
45523;BME280;31254;51.680;5.394;2023-08-08T07:13:23;101439.50;;;16.51;84.98
45523;BME280;31254;51.680;5.394;2023-08-08T07:15:52;101445.19;;;16.57;85.24
45523;BME280;31254;51.680;5.394;2023-08-08T07:18:24;101440.84;;;16.63;85.07
45523;BME280;31254;51.680;5.394;2023-08-08T07:20:53;101422.09;;;16.58;84.99
45523;BME280;31254;51.680;5.394;2023-08-08T07:23:25;101435.28;;;16.79;84.70
45523;BME280;31254;51.680;5.394;2023-08-08T07:25:52;101399.53;;;16.63;84.44
45523;BME280;31254;51.680;5.394;2023-08-08T07:28:21;101416.00;;;16.79;84.06
45523;BME280;31254;51.680;5.394;2023-08-08T07:30:47;101417.06;;;16.87;84.22
45523;BME280;31254;51.680;5.394;2023-08-08T07:33:14;101406.03;;;16.87;83.94
45523;BME280;31254;51.680;5.394;2023-08-08T07:35:41;101398.09;;;16.92;84.02
45523;BME280;31254;51.680;5.394;2023-08-08T07:38:07;101415.41;;;17.09;84.15
45523;BME280;31254;51.680;5.394;2023-08-08T07:40:35;101425.50;;;17.25;83.58
45523;BME280;31254;51.680;5.394;2023-08-08T07:43:02;101389.22;;;17.13;83.00
45523;BME280;31254;51.680;5.394;2023-08-08T07:45:29;101438.34;;;17.41;82.29
45523;BME280;31254;51.680;5.394;2023-08-08T07:47:56;101423.00;;;17.46;82.03
45523;BME280;31254;51.680;5.394;2023-08-08T07:50:23;101426.06;;;17.51;81.07
45523;BME280;31254;51.680;5.394;2023-08-08T07:52:52;101421.53;;;17.59;80.90
45523;BME280;31254;51.680;5.394;2023-08-08T07:55:18;101420.44;;;17.68;81.34
45523;BME280;31254;51.680;5.394;2023-08-08T07:57:48;101415.69;;;17.77;81.02
45523;BME280;31254;51.680;5.394;2023-08-08T08:00:15;101394.22;;;17.72;79.81
45523;BME280;31254;51.680;5.394;2023-08-08T08:02:45;101410.78;;;17.95;80.18
45523;BME280;31254;51.680;5.394;2023-08-08T08:05:14;101424.34;;;18.05;79.48
45523;BME280;31254;51.680;5.394;2023-08-08T08:07:41;101215.88;;;16.95;78.68
45523;BME280;31254;51.680;5.394;2023-08-08T08:10:10;101424.00;;;18.23;77.73
45523;BME280;31254;51.680;5.394;2023-08-08T08:12:40;101415.16;;;18.27;78.17
45523;BME280;31254;51.680;5.394;2023-08-08T08:15:10;101416.81;;;18.37;77.06
45523;BME280;31254;51.680;5.394;2023-08-08T08:17:36;101409.38;;;18.37;77.64
45523;BME280;31254;51.680;5.394;2023-08-08T08:20:04;101417.84;;;18.51;76.72
45523;BME280;31254;51.680;5.394;2023-08-08T08:22:38;101371.06;;;18.34;75.72
45523;BME280;31254;51.680;5.394;2023-08-08T08:25:05;101409.09;;;18.62;74.87
45523;BME280;31254;51.680;5.394;2023-08-08T08:27:36;101391.25;;;18.50;74.30
45523;BME280;31254;51.680;5.394;2023-08-08T08:30:07;101384.41;;;18.45;73.80
45523;BME280;31254;51.680;5.394;2023-08-08T08:32:38;101413.59;;;18.63;73.69
45523;BME280;31254;51.680;5.394;2023-08-08T08:35:09;101394.91;;;18.50;73.83
45523;BME280;31254;51.680;5.394;2023-08-08T08:37:35;101420.44;;;18.67;73.70
45523;BME280;31254;51.680;5.394;2023-08-08T08:40:02;101387.94;;;18.54;73.87
45523;BME280;31254;51.680;5.394;2023-08-08T08:42:34;101421.03;;;18.77;74.49
45523;BME280;31254;51.680;5.394;2023-08-08T08:45:02;101415.31;;;18.79;72.31
45523;BME280;31254;51.680;5.394;2023-08-08T08:47:30;101417.19;;;18.78;71.01
45523;BME280;31254;51.680;5.394;2023-08-08T08:50:00;101415.78;;;18.82;69.98
45523;BME280;31254;51.680;5.394;2023-08-08T08:52:30;101360.03;;;18.49;69.82
45523;BME280;31254;51.680;5.394;2023-08-08T08:54:57;101400.25;;;18.81;69.16
45523;BME280;31254;51.680;5.394;2023-08-08T08:57:24;101399.41;;;18.81;68.12
45523;BME280;31254;51.680;5.394;2023-08-08T08:59:51;101398.31;;;18.82;68.16
45523;BME280;31254;51.680;5.394;2023-08-08T09:02:18;101422.56;;;18.95;69.40
45523;BME280;31254;51.680;5.394;2023-08-08T09:04:46;101423.34;;;19.04;69.55
45523;BME280;31254;51.680;5.394;2023-08-08T09:07:17;101427.22;;;19.09;69.88
45523;BME280;31254;51.680;5.394;2023-08-08T09:09:50;101382.94;;;18.88;68.65
45523;BME280;31254;51.680;5.394;2023-08-08T09:12:16;101407.41;;;19.06;68.76
45523;BME280;31254;51.680;5.394;2023-08-08T09:14:45;101419.50;;;19.20;68.82
45523;BME280;31254;51.680;5.394;2023-08-08T09:17:12;101412.44;;;19.17;69.20
45523;BME280;31254;51.680;5.394;2023-08-08T09:19:47;101379.94;;;19.04;69.32
45523;BME280;31254;51.680;5.394;2023-08-08T09:22:14;101413.78;;;19.21;68.13
45523;BME280;31254;51.680;5.394;2023-08-08T09:24:41;101421.59;;;19.32;68.33
45523;BME280;31254;51.680;5.394;2023-08-08T09:27:08;101371.56;;;18.97;69.12
45523;BME280;31254;51.680;5.394;2023-08-08T09:29:38;101425.84;;;19.35;67.88
45523;BME280;31254;51.680;5.394;2023-08-08T09:32:05;101364.13;;;18.98;68.09
45523;BME280;31254;51.680;5.394;2023-08-08T09:34:37;101430.53;;;19.34;68.10
45523;BME280;31254;51.680;5.394;2023-08-08T09:37:08;101426.34;;;19.24;68.92
45523;BME280;31254;51.680;5.394;2023-08-08T09:39:37;101433.22;;;19.28;69.23
45523;BME280;31254;51.680;5.394;2023-08-08T09:42:07;101432.44;;;19.34;68.81
45523;BME280;31254;51.680;5.394;2023-08-08T09:44:37;101349.75;;;18.88;69.87
45523;BME280;31254;51.680;5.394;2023-08-08T09:47:04;101428.91;;;19.40;71.19
45523;BME280;31254;51.680;5.394;2023-08-08T09:49:34;101423.63;;;19.45;71.35
45523;BME280;31254;51.680;5.394;2023-08-08T09:52:03;101412.88;;;19.50;71.30
45523;BME280;31254;51.680;5.394;2023-08-08T09:54:30;101419.25;;;19.51;70.92
45523;BME280;31254;51.680;5.394;2023-08-08T09:56:58;101403.03;;;19.48;70.09
45523;BME280;31254;51.680;5.394;2023-08-08T09:59:31;101321.03;;;19.04;70.24
45523;BME280;31254;51.680;5.394;2023-08-08T10:01:58;101431.00;;;19.75;69.86
45523;BME280;31254;51.680;5.394;2023-08-08T10:04:31;101404.13;;;19.68;68.59
45523;BME280;31254;51.680;5.394;2023-08-08T10:06:57;101422.13;;;19.79;68.63
45523;BME280;31254;51.680;5.394;2023-08-08T10:09:27;101426.69;;;19.87;68.77
45523;BME280;31254;51.680;5.394;2023-08-08T10:11:54;101420.34;;;19.93;66.91
45523;BME280;31254;51.680;5.394;2023-08-08T10:14:29;101401.75;;;19.87;66.09
45523;BME280;31254;51.680;5.394;2023-08-08T10:16:56;101437.09;;;20.06;65.82
45523;BME280;31254;51.680;5.394;2023-08-08T10:19:25;101419.31;;;19.94;65.42
45523;BME280;31254;51.680;5.394;2023-08-08T10:22:04;101423.63;;;20.03;65.22
45523;BME280;31254;51.680;5.394;2023-08-08T10:24:35;101441.03;;;20.19;64.46
45523;BME280;31254;51.680;5.394;2023-08-08T10:27:03;101440.66;;;20.22;65.56
45523;BME280;31254;51.680;5.394;2023-08-08T10:29:33;101434.72;;;20.25;65.95
45523;BME280;31254;51.680;5.394;2023-08-08T10:32:03;101416.72;;;20.14;65.31
45523;BME280;31254;51.680;5.394;2023-08-08T10:34:41;101436.88;;;20.30;63.96
45523;BME280;31254;51.680;5.394;2023-08-08T10:37:15;101322.66;;;19.56;63.26
45523;BME280;31254;51.680;5.394;2023-08-08T10:39:54;101443.72;;;20.34;63.57
45523;BME280;31254;51.680;5.394;2023-08-08T10:42:24;101433.78;;;20.39;63.53
45523;BME280;31254;51.680;5.394;2023-08-08T10:44:55;101424.59;;;20.39;63.58
45523;BME280;31254;51.680;5.394;2023-08-08T10:47:26;101422.25;;;20.42;64.35
45523;BME280;31254;51.680;5.394;2023-08-08T10:50:10;101421.63;;;20.40;64.31
45523;BME280;31254;51.680;5.394;2023-08-08T11:00:35;101427.63;;;20.72;63.78
45523;BME280;31254;51.680;5.394;2023-08-08T11:03:03;101428.53;;;20.79;64.20
45523;BME280;31254;51.680;5.394;2023-08-08T11:05:34;101406.50;;;20.71;63.94
45523;BME280;31254;51.680;5.394;2023-08-08T11:08:02;101430.88;;;20.82;62.33
45523;BME280;31254;51.680;5.394;2023-08-08T11:10:35;101403.94;;;20.70;62.36
45523;BME280;31254;51.680;5.394;2023-08-08T11:13:03;101425.75;;;20.79;62.32
45523;BME280;31254;51.680;5.394;2023-08-08T11:15:34;101407.13;;;20.67;62.32
45523;BME280;31254;51.680;5.394;2023-08-08T11:18:04;101441.13;;;20.82;62.84
45523;BME280;31254;51.680;5.394;2023-08-08T11:20:33;101399.69;;;20.67;63.00
45523;BME280;31254;51.680;5.394;2023-08-08T11:23:00;101426.22;;;20.83;62.72
45523;BME280;31254;51.680;5.394;2023-08-08T11:25:28;101409.53;;;20.76;63.27
45523;BME280;31254;51.680;5.394;2023-08-08T11:27:56;101423.69;;;20.88;63.58
45523;BME280;31254;51.680;5.394;2023-08-08T11:30:28;101391.41;;;20.74;62.59
45523;BME280;31254;51.680;5.394;2023-08-08T11:32:58;101428.41;;;20.94;61.64
45523;BME280;31254;51.680;5.394;2023-08-08T11:35:29;101415.13;;;20.83;60.67
45523;BME280;31254;51.680;5.394;2023-08-08T11:37:57;101427.94;;;20.91;61.25
45523;BME280;31254;51.680;5.394;2023-08-08T11:40:28;101428.19;;;20.96;61.16
45523;BME280;31254;51.680;5.394;2023-08-08T11:42:57;101418.22;;;21.02;61.98
45523;BME280;31254;51.680;5.394;2023-08-08T11:45:24;101412.66;;;21.02;61.15
45523;BME280;31254;51.680;5.394;2023-08-08T11:47:54;101425.50;;;21.09;60.82
45523;BME280;31254;51.680;5.394;2023-08-08T11:50:22;101414.66;;;21.14;60.90
45523;BME280;31254;51.680;5.394;2023-08-08T11:52:53;101415.28;;;21.16;60.48
45523;BME280;31254;51.680;5.394;2023-08-08T11:55:21;101406.78;;;21.25;59.60
45523;BME280;31254;51.680;5.394;2023-08-08T11:57:57;101393.59;;;21.27;60.14
45523;BME280;31254;51.680;5.394;2023-08-08T12:00:28;101406.00;;;21.44;60.30
45523;BME280;31254;51.680;5.394;2023-08-08T12:03:01;101410.53;;;21.52;60.30
45523;BME280;31254;51.680;5.394;2023-08-08T12:05:36;101365.09;;;21.66;59.21
45523;BME280;31254;51.680;5.394;2023-08-08T12:08:05;101353.56;;;21.83;58.12
45523;BME280;31254;51.680;5.394;2023-08-08T12:10:34;101398.25;;;22.21;56.37
45523;BME280;31254;51.680;5.394;2023-08-08T12:13:04;101412.16;;;22.08;57.66
45523;BME280;31254;51.680;5.394;2023-08-08T12:15:35;101370.44;;;21.81;58.14
45523;BME280;31254;51.680;5.394;2023-08-08T12:18:03;101378.56;;;22.03;57.15
45523;BME280;31254;51.680;5.394;2023-08-08T12:20:32;101417.72;;;22.35;56.64
45523;BME280;31254;51.680;5.394;2023-08-08T12:22:59;101389.09;;;22.34;55.55
45523;BME280;31254;51.680;5.394;2023-08-08T12:25:26;101401.88;;;22.55;55.53
45523;BME280;31254;51.680;5.394;2023-08-08T12:27:54;101421.75;;;22.66;54.95
45523;BME280;31254;51.680;5.394;2023-08-08T12:30:20;101404.84;;;22.74;54.58
45523;BME280;31254;51.680;5.394;2023-08-08T12:32:49;101377.25;;;22.66;54.95
45523;BME280;31254;51.680;5.394;2023-08-08T12:35:16;101398.16;;;22.88;53.46
45523;BME280;31254;51.680;5.394;2023-08-08T12:37:43;101352.66;;;22.69;52.61
45523;BME280;31254;51.680;5.394;2023-08-08T12:40:10;101398.34;;;23.07;52.89
45523;BME280;31254;51.680;5.394;2023-08-08T12:42:37;101400.69;;;23.16;51.79
45523;BME280;31254;51.680;5.394;2023-08-08T12:45:08;101407.47;;;23.27;51.31
45523;BME280;31254;51.680;5.394;2023-08-08T12:47:37;101400.22;;;23.26;50.59
45523;BME280;31254;51.680;5.394;2023-08-08T12:50:04;101396.78;;;23.24;51.11
45523;BME280;31254;51.680;5.394;2023-08-08T12:52:31;101394.41;;;23.34;50.47
45523;BME280;31254;51.680;5.394;2023-08-08T12:54:58;101378.63;;;23.22;48.16
45523;BME280;31254;51.680;5.394;2023-08-08T12:57:31;101377.75;;;23.21;48.11
45523;BME280;31254;51.680;5.394;2023-08-08T12:59:59;101366.25;;;23.11;47.80
45523;BME280;31254;51.680;5.394;2023-08-08T13:02:26;101392.53;;;23.22;48.66
45523;BME280;31254;51.680;5.394;2023-08-08T13:04:55;101392.72;;;23.27;48.66
45523;BME280;31254;51.680;5.394;2023-08-08T13:07:24;101373.50;;;23.18;48.52
45523;BME280;31254;51.680;5.394;2023-08-08T13:09:54;101376.84;;;23.27;47.64